Pinhao, Brazil
Current Conditions -  °F | °C
As of 5:00 PM on Thursday 18 Dec 2014 (Local Time) from SBCH Reporting Station
Scattered Clouds Scattered Clouds  
Wind Chill: 88°   Ceiling: Unl
Heat Index: 90°   Visibility: 6mi
Dew Point: 66°   Wind: 12mph
Humidity: 49%   Direction: 280°W
Pressure: 29.83"   Gusts: NA
Location:  25.7°S, 51.66°W
Report Text: SBCH 181900Z 28010KT 9999 FEW035TCU SCT040 31/19 Q1010
Loading
Personal Weather Stations






























Interactive Weather Map New forecast layout! Learn more

10-Day Weather Forecast

Advertisements
Track Severe Weather on mobile